createdAt,value
2023-02-19T00:01:45.671Z,100932.53
2023-02-19T00:04:17.823Z,100935.22
2023-02-19T00:06:45.687Z,100928.19
2023-02-19T00:09:13.753Z,100915.56
2023-02-19T00:11:40.911Z,100907.34
2023-02-19T00:14:08.301Z,100910.34
2023-02-19T00:16:39.815Z,100921.38
2023-02-19T00:19:10.769Z,100915.00
2023-02-19T00:21:37.277Z,100908.88
2023-02-19T00:24:05.890Z,100917.56
2023-02-19T00:26:32.966Z,100906.38
2023-02-19T00:29:00.999Z,100893.69
2023-02-19T00:31:32.508Z,100888.31
2023-02-19T00:34:04.111Z,100884.00
2023-02-19T00:36:32.564Z,100869.97
2023-02-19T00:38:59.040Z,100871.69
2023-02-19T00:41:25.985Z,100867.03
2023-02-19T00:44:03.902Z,100860.03
2023-02-19T00:46:32.110Z,100868.63
2023-02-19T00:48:59.285Z,100871.94
2023-02-19T00:51:28.383Z,100868.97
2023-02-19T00:53:55.428Z,100872.22
2023-02-19T00:56:22.447Z,100871.13
2023-02-19T00:58:49.822Z,100864.34
2023-02-19T01:01:17.233Z,100862.63
2023-02-19T01:03:44.758Z,100879.44
2023-02-19T01:06:13.412Z,100893.50
2023-02-19T01:08:40.080Z,100890.03
2023-02-19T01:11:08.537Z,100899.00
2023-02-19T01:13:35.979Z,100895.81
2023-02-19T01:16:18.287Z,100895.59
2023-02-19T01:18:45.504Z,100895.81
2023-02-19T01:21:20.609Z,100879.25
2023-02-19T01:23:47.736Z,100871.84
2023-02-19T01:26:17.489Z,100868.78
2023-02-19T01:28:45.733Z,100874.19
2023-02-19T01:31:17.045Z,100877.16
2023-02-19T01:33:50.224Z,100865.56
2023-02-19T01:36:17.063Z,100872.44
2023-02-19T01:38:44.285Z,100866.47
2023-02-19T01:41:14.895Z,100859.34
2023-02-19T01:44:08.096Z,100847.38
2023-02-19T01:46:40.191Z,100855.19
2023-02-19T01:49:18.563Z,100846.56
2023-02-19T01:51:50.666Z,100846.97
2023-02-19T01:54:22.692Z,100851.28
2023-02-19T01:56:49.943Z,100849.88
2023-02-19T01:59:18.394Z,100845.06
2023-02-19T02:01:45.016Z,100846.41
2023-02-19T02:04:14.318Z,100836.44
2023-02-19T02:06:50.035Z,100847.50
2023-02-19T02:09:37.946Z,100845.38
2023-02-19T02:12:04.813Z,100842.72
2023-02-19T02:14:35.815Z,100848.13
2023-02-19T02:17:26.797Z,100847.31
2023-02-19T02:20:15.215Z,100839.75
2023-02-19T02:22:54.841Z,100840.44
2023-02-19T02:25:56.189Z,100837.28
2023-02-19T02:28:56.542Z,100842.03
2023-02-19T02:31:35.441Z,100844.06
2023-02-19T02:34:14.554Z,100835.25
2023-02-19T02:36:46.018Z,100838.25
2023-02-19T02:39:18.802Z,100828.00
2023-02-19T02:42:14.122Z,100821.22
2023-02-19T02:45:04.087Z,100831.00
2023-02-19T02:47:42.069Z,100824.50
2023-02-19T02:50:18.992Z,100828.88
2023-02-19T02:53:08.144Z,100833.50
2023-02-19T02:55:41.192Z,100836.00
2023-02-19T02:58:10.214Z,100835.75
2023-02-19T03:00:58.286Z,100838.16
2023-02-19T03:03:28.461Z,100847.91
2023-02-19T03:06:02.792Z,100839.56
2023-02-19T03:08:35.673Z,100840.06
2023-02-19T03:11:24.449Z,100841.97
2023-02-19T03:14:15.542Z,100856.03
2023-02-19T03:17:04.203Z,100877.69
2023-02-19T03:19:35.263Z,100878.94
2023-02-19T03:22:11.572Z,100875.72
2023-02-19T03:25:01.577Z,100882.38
2023-02-19T03:27:32.331Z,100880.09
2023-02-19T03:30:05.515Z,100882.72
2023-02-19T03:32:45.596Z,100881.34
2023-02-19T03:35:27.370Z,100883.03
2023-02-19T03:38:04.658Z,100901.19
2023-02-19T03:40:48.057Z,100907.44
2023-02-19T03:43:21.156Z,100902.44
2023-02-19T03:46:02.088Z,100899.38
2023-02-19T03:48:36.878Z,100908.19
2023-02-19T03:51:22.870Z,100909.38
2023-02-19T03:54:06.809Z,100915.63
2023-02-19T03:56:36.722Z,100921.69
2023-02-19T03:59:13.303Z,100925.56
2023-02-19T04:01:58.330Z,100934.69
2023-02-19T04:04:29.521Z,100950.00
2023-02-19T04:06:57.369Z,100941.88
2023-02-19T04:09:42.270Z,100952.34
2023-02-19T04:12:14.923Z,100963.84
2023-02-19T04:15:02.279Z,100971.38
2023-02-19T04:17:44.002Z,100975.13
2023-02-19T04:20:12.121Z,100976.16
2023-02-19T04:22:40.504Z,100980.44
2023-02-19T04:25:07.822Z,100978.66
2023-02-19T04:27:38.547Z,100987.81
2023-02-19T04:30:09.235Z,100988.53
2023-02-19T04:32:35.847Z,101009.41
2023-02-19T04:35:03.158Z,101019.72
2023-02-19T04:37:29.721Z,101008.09
2023-02-19T04:39:56.620Z,101001.19
2023-02-19T04:42:23.945Z,101020.44
2023-02-19T04:44:50.838Z,101043.41
2023-02-19T04:47:20.140Z,101055.84
2023-02-19T04:49:46.648Z,101062.63
2023-02-19T04:52:13.468Z,101056.53
2023-02-19T04:54:40.083Z,101051.03
2023-02-19T04:57:06.638Z,101064.63
2023-02-19T04:59:33.268Z,101057.00
2023-02-19T05:01:59.674Z,101054.88
2023-02-19T05:04:26.289Z,101054.53
2023-02-19T05:06:52.861Z,101053.47
2023-02-19T05:09:19.422Z,101068.22
2023-02-19T05:11:45.901Z,101073.72
2023-02-19T05:14:12.290Z,101075.25
2023-02-19T05:16:39.269Z,101083.81
2023-02-19T05:19:05.672Z,101089.28
2023-02-19T05:21:32.112Z,101100.31
2023-02-19T05:23:58.582Z,101108.25
2023-02-19T05:26:25.290Z,101110.28
2023-02-19T05:28:53.144Z,101108.13
2023-02-19T05:31:20.494Z,101115.31
2023-02-19T05:33:50.876Z,101125.47
2023-02-19T05:36:19.043Z,101126.91
2023-02-19T05:38:45.472Z,101130.03
2023-02-19T05:41:14.678Z,101128.19
2023-02-19T05:43:42.349Z,101137.44
2023-02-19T05:46:12.294Z,101140.72
2023-02-19T05:48:38.980Z,101153.13
2023-02-19T05:51:10.617Z,101160.63
2023-02-19T05:53:37.947Z,101169.22
2023-02-19T05:56:04.886Z,101174.75
2023-02-19T05:58:31.314Z,101179.41
2023-02-19T06:00:57.764Z,101187.94
2023-02-19T06:03:24.244Z,101193.69
2023-02-19T06:05:50.951Z,101200.84
2023-02-19T06:08:17.381Z,101208.72
2023-02-19T06:10:44.155Z,101214.88
2023-02-19T06:13:10.869Z,101213.47
2023-02-19T06:15:37.701Z,101221.34
2023-02-19T06:18:04.304Z,101230.50
2023-02-19T06:20:30.739Z,101239.66
2023-02-19T06:22:57.128Z,101246.53
2023-02-19T06:25:23.890Z,101260.47
2023-02-19T06:27:50.448Z,101266.28
2023-02-19T06:30:17.300Z,101255.97
2023-02-19T06:32:43.760Z,101260.16
2023-02-19T06:35:10.173Z,101278.59
2023-02-19T06:37:36.567Z,101274.69
2023-02-19T06:40:03.994Z,101283.16
2023-02-19T06:42:33.474Z,101291.00
2023-02-19T06:44:59.955Z,101305.94
2023-02-19T06:47:26.452Z,101317.53
2023-02-19T06:49:53.286Z,101320.28
2023-02-19T06:52:19.808Z,101328.31
2023-02-19T06:54:46.220Z,101333.06
2023-02-19T06:57:12.607Z,101340.09
2023-02-19T06:59:39.028Z,101348.16
2023-02-19T07:02:05.493Z,101355.78
2023-02-19T07:04:32.144Z,101378.78
2023-02-19T07:07:00.153Z,101386.63
2023-02-19T07:09:28.490Z,101388.03
2023-02-19T07:11:55.118Z,101391.13
2023-02-19T07:14:21.634Z,101401.03
2023-02-19T07:16:48.507Z,101400.44
2023-02-19T07:19:15.752Z,101411.97
2023-02-19T07:21:42.783Z,101418.00
2023-02-19T07:24:10.156Z,101430.19
2023-02-19T07:26:36.598Z,101442.22
2023-02-19T07:29:03.049Z,101440.13
2023-02-19T07:31:29.712Z,101440.91
2023-02-19T07:33:56.421Z,101453.38
2023-02-19T07:36:24.294Z,101452.13
2023-02-19T07:38:58.335Z,101450.88
2023-02-19T07:41:25.951Z,101454.19
2023-02-19T07:43:55.616Z,101467.03
2023-02-19T07:46:22.774Z,101475.50
2023-02-19T07:48:49.409Z,101478.97
2023-02-19T07:51:18.881Z,101480.63
2023-02-19T07:53:46.696Z,101491.00
2023-02-19T07:56:13.460Z,101488.06
2023-02-19T07:58:40.317Z,101500.88
2023-02-19T08:01:44.085Z,101507.53
2023-02-19T08:04:12.118Z,101504.19
2023-02-19T08:06:38.611Z,101500.06
2023-02-19T08:09:05.533Z,101509.13
2023-02-19T08:11:50.847Z,101514.31
2023-02-19T08:14:17.304Z,101525.91
2023-02-19T08:16:53.918Z,101523.03
2023-02-19T08:19:21.086Z,101530.44
2023-02-19T08:21:47.640Z,101528.13
2023-02-19T08:24:14.065Z,101540.59
2023-02-19T08:26:40.503Z,101541.16
2023-02-19T08:29:07.020Z,101546.56
2023-02-19T08:31:35.184Z,101539.13
2023-02-19T08:34:02.616Z,101525.69
2023-02-19T08:36:29.178Z,101518.63
2023-02-19T08:38:55.679Z,101518.59
2023-02-19T08:41:22.401Z,101532.88
2023-02-19T08:43:49.246Z,101542.47
2023-02-19T08:46:15.858Z,101539.75
2023-02-19T08:48:42.370Z,101544.03
2023-02-19T08:51:11.146Z,101543.59
2023-02-19T08:53:39.202Z,101544.00
2023-02-19T08:56:07.478Z,101549.41
2023-02-19T08:58:33.992Z,101548.78
2023-02-19T09:01:00.496Z,101560.56
2023-02-19T09:03:27.405Z,101561.13
2023-02-19T09:05:54.096Z,101574.81
2023-02-19T09:08:20.586Z,101581.63
2023-02-19T09:10:57.644Z,101597.50
2023-02-19T09:13:24.215Z,101595.94
2023-02-19T09:15:50.936Z,101600.38
2023-02-19T09:18:17.565Z,101595.81
2023-02-19T09:20:43.973Z,101593.53
2023-02-19T09:23:10.380Z,101608.22
2023-02-19T09:25:36.812Z,101610.28
2023-02-19T09:28:03.474Z,101603.28
2023-02-19T09:30:29.994Z,101601.88
2023-02-19T09:32:56.465Z,101624.78
2023-02-19T09:35:23.068Z,101622.09
2023-02-19T09:37:49.548Z,101626.63
2023-02-19T09:40:21.387Z,101628.97
2023-02-19T09:42:51.116Z,101629.56
2023-02-19T09:45:23.308Z,101629.31
2023-02-19T09:47:54.364Z,101633.66
2023-02-19T09:50:26.297Z,101636.09
2023-02-19T09:52:59.556Z,101639.81
2023-02-19T09:55:36.618Z,101652.50
2023-02-19T09:58:16.541Z,101666.56
2023-02-19T10:00:42.999Z,101680.38
2023-02-19T10:03:20.632Z,101688.94
2023-02-19T10:05:47.926Z,101685.38
2023-02-19T10:08:19.215Z,101692.28
2023-02-19T10:10:45.665Z,101691.75
2023-02-19T10:13:34.880Z,101702.72
2023-02-19T10:16:04.106Z,101717.16
2023-02-19T10:18:41.381Z,101736.66
2023-02-19T10:21:14.192Z,101733.94
2023-02-19T10:23:41.352Z,101730.91
2023-02-19T10:26:07.822Z,101739.63
2023-02-19T10:28:35.804Z,101755.22
2023-02-19T10:31:07.353Z,101756.84
2023-02-19T10:33:33.780Z,101757.03
2023-02-19T10:36:03.966Z,101755.03
2023-02-19T10:38:36.820Z,101755.19
2023-02-19T10:41:13.182Z,101755.06
2023-02-19T10:43:44.172Z,101765.03
2023-02-19T10:46:21.930Z,101772.00
2023-02-19T10:49:01.334Z,101768.22
2023-02-19T10:51:47.745Z,101759.81
2023-02-19T10:54:40.791Z,101759.91
2023-02-19T10:57:34.550Z,101752.06
2023-02-19T11:00:18.760Z,101747.06
2023-02-19T11:02:45.819Z,101736.09
2023-02-19T11:05:14.400Z,101739.19
2023-02-19T11:07:56.098Z,101753.00
2023-02-19T11:10:33.499Z,101757.88
2023-02-19T11:13:02.910Z,101759.97
2023-02-19T11:15:31.176Z,101782.38
2023-02-19T11:18:01.802Z,101780.97
2023-02-19T11:20:55.425Z,101791.75
2023-02-19T11:23:34.303Z,101790.00
2023-02-19T11:26:03.992Z,101790.16
2023-02-19T11:28:39.933Z,101783.34
2023-02-19T11:31:20.526Z,101787.97
2023-02-19T11:34:04.022Z,101786.09
2023-02-19T11:36:34.381Z,101778.38
2023-02-19T11:39:30.571Z,101793.06
2023-02-19T11:42:20.945Z,101791.50
2023-02-19T11:45:15.057Z,101794.78
2023-02-19T11:48:04.900Z,101797.09
2023-02-19T11:50:46.445Z,101796.97
2023-02-19T11:53:24.531Z,101788.69
2023-02-19T11:56:12.399Z,101782.56
2023-02-19T11:59:02.603Z,101779.34
2023-02-19T12:01:35.437Z,101779.44
2023-02-19T12:04:12.114Z,101776.59
2023-02-19T12:07:16.497Z,101777.41
2023-02-19T12:10:03.349Z,101781.75
2023-02-19T12:12:52.270Z,101784.09
2023-02-19T12:15:30.896Z,101782.09
2023-02-19T12:18:39.571Z,101781.03
2023-02-19T12:21:43.704Z,101782.72
2023-02-19T12:24:35.959Z,101779.78
2023-02-19T12:27:24.421Z,101788.47
2023-02-19T12:30:18.217Z,101788.22
2023-02-19T12:32:50.984Z,101793.34
2023-02-19T12:35:40.105Z,101803.81
2023-02-19T12:38:23.414Z,101800.22
2023-02-19T12:41:10.413Z,101795.25
2023-02-19T12:43:40.350Z,101800.69
2023-02-19T12:46:15.476Z,101798.97
2023-02-19T12:49:26.110Z,101797.78
2023-02-19T12:51:59.281Z,101801.88
2023-02-19T12:54:41.936Z,101797.97
2023-02-19T12:57:23.732Z,101801.25
2023-02-19T13:00:39.810Z,101807.94
2023-02-19T13:03:33.335Z,101802.66
2023-02-19T13:06:22.443Z,101812.63
2023-02-19T13:09:06.722Z,101817.59
2023-02-19T13:11:42.677Z,101811.91
2023-02-19T13:14:17.173Z,101819.78
2023-02-19T13:16:48.678Z,101820.50
2023-02-19T13:19:15.277Z,101828.06
2023-02-19T13:22:02.932Z,101828.63
2023-02-19T13:24:41.608Z,101831.03
2023-02-19T13:27:30.973Z,101829.50
2023-02-19T13:30:15.409Z,101820.94
2023-02-19T13:33:03.030Z,101809.06
2023-02-19T13:36:14.555Z,101807.34
2023-02-19T13:38:44.806Z,101799.13
2023-02-19T13:41:28.020Z,101801.25
2023-02-19T13:44:08.267Z,101794.50
2023-02-19T13:46:41.729Z,101803.66
2023-02-19T13:49:34.320Z,101784.69
2023-02-19T13:52:02.950Z,101788.00
2023-02-19T13:54:37.012Z,101795.38
2023-02-19T13:57:22.791Z,101805.50
2023-02-19T13:59:51.190Z,101801.44
2023-02-19T14:02:20.644Z,101808.25
2023-02-19T14:04:54.661Z,101808.16
2023-02-19T14:07:34.737Z,101815.41
2023-02-19T14:10:01.969Z,101816.91
2023-02-19T14:12:36.479Z,101816.91
2023-02-19T14:15:44.139Z,101829.47
2023-02-19T14:18:45.558Z,101825.84
2023-02-19T14:21:22.521Z,101830.56
2023-02-19T14:23:56.724Z,101830.19
2023-02-19T14:26:25.833Z,101836.63
2023-02-19T14:28:53.914Z,101832.97
2023-02-19T14:31:29.208Z,101834.38
2023-02-19T14:34:04.811Z,101828.41
2023-02-19T14:36:33.769Z,101838.47
2023-02-19T14:39:04.901Z,101839.94
2023-02-19T14:41:34.137Z,101848.88
2023-02-19T14:44:02.134Z,101858.94
2023-02-19T14:46:37.374Z,101856.47
2023-02-19T14:49:33.068Z,101839.13
2023-02-19T14:52:12.271Z,101844.06
2023-02-19T14:55:01.322Z,101835.28
2023-02-19T14:57:38.159Z,101834.97
2023-02-19T15:00:23.187Z,101831.59
2023-02-19T15:02:52.624Z,101828.13
2023-02-19T15:05:25.009Z,101825.69
2023-02-19T15:07:54.913Z,101829.28
2023-02-19T15:10:21.788Z,101815.91
2023-02-19T15:12:55.756Z,101818.16
2023-02-19T15:15:27.107Z,101814.84
2023-02-19T15:17:55.635Z,101798.38
2023-02-19T15:20:27.827Z,101800.34
2023-02-19T15:22:56.300Z,101805.09
2023-02-19T15:25:29.300Z,101814.69
2023-02-19T15:27:55.923Z,101818.75
2023-02-19T15:30:31.942Z,101819.19
2023-02-19T15:33:00.129Z,101811.97
2023-02-19T15:35:33.826Z,101798.00
2023-02-19T15:38:00.802Z,101799.69
2023-02-19T15:40:31.272Z,101808.38
2023-02-19T15:43:00.181Z,101809.50
2023-02-19T15:45:39.356Z,101804.91
2023-02-19T15:48:15.047Z,101813.25
2023-02-19T15:50:49.001Z,101816.16
2023-02-19T15:53:31.585Z,101807.00
2023-02-19T15:56:04.181Z,101813.38
2023-02-19T15:58:42.627Z,101812.50
2023-02-19T16:01:37.686Z,101818.59
2023-02-19T16:04:11.327Z,101815.97
2023-02-19T16:06:52.332Z,101818.81
2023-02-19T16:09:28.832Z,101818.09
2023-02-19T16:11:57.869Z,101821.84
2023-02-19T16:14:37.698Z,101838.94
2023-02-19T16:17:16.446Z,101838.16
2023-02-19T16:19:43.668Z,101834.34
2023-02-19T16:22:12.543Z,101837.78
2023-02-19T16:24:45.274Z,101828.09
2023-02-19T16:27:33.314Z,101834.59
2023-02-19T16:30:07.640Z,101836.28
2023-02-19T16:32:34.167Z,101840.00
2023-02-19T16:35:02.521Z,101836.75
2023-02-19T16:37:40.820Z,101837.00
2023-02-19T16:40:07.441Z,101846.53
2023-02-19T16:42:36.100Z,101845.91
2023-02-19T16:45:02.557Z,101845.31
2023-02-19T16:47:32.013Z,101846.00
2023-02-19T16:50:01.255Z,101855.34
2023-02-19T16:52:28.601Z,101856.66
2023-02-19T16:54:55.201Z,101861.81
2023-02-19T16:57:21.725Z,101873.88
2023-02-19T16:59:48.437Z,101880.72
2023-02-19T17:02:19.337Z,101881.16
2023-02-19T17:04:47.451Z,101880.31
2023-02-19T17:07:18.541Z,101882.19
2023-02-19T17:09:45.292Z,101889.66
2023-02-19T17:12:13.422Z,101897.97
2023-02-19T17:14:39.897Z,101896.72
2023-02-19T17:17:06.394Z,101891.13
2023-02-19T17:19:32.811Z,101887.41
2023-02-19T17:21:59.279Z,101884.72
2023-02-19T17:24:25.857Z,101878.50
2023-02-19T17:26:52.361Z,101876.19
2023-02-19T17:29:19.857Z,101890.91
2023-02-19T17:31:46.370Z,101890.09
2023-02-19T17:34:12.826Z,101882.44
2023-02-19T17:36:40.349Z,101879.94
2023-02-19T17:39:15.332Z,101882.22
2023-02-19T17:41:42.320Z,101887.22
2023-02-19T17:44:09.025Z,101876.84
2023-02-19T17:46:35.828Z,101875.19
2023-02-19T17:49:02.354Z,101871.88
2023-02-19T17:51:28.865Z,101871.66
2023-02-19T17:53:55.449Z,101872.72
2023-02-19T17:56:25.726Z,101866.50
2023-02-19T17:58:53.493Z,101868.97
2023-02-19T18:01:20.547Z,101864.22
2023-02-19T18:03:47.143Z,101875.63
2023-02-19T18:06:14.384Z,101877.06
2023-02-19T18:08:47.002Z,101877.25
2023-02-19T18:11:13.615Z,101878.72
2023-02-19T18:13:40.297Z,101888.63
2023-02-19T18:16:07.027Z,101888.88
2023-02-19T18:18:33.438Z,101878.72
2023-02-19T18:21:00.173Z,101880.78
2023-02-19T18:23:27.523Z,101897.97
2023-02-19T18:25:54.055Z,101893.78
2023-02-19T18:28:20.483Z,101900.44
2023-02-19T18:30:47.028Z,101902.94
2023-02-19T18:33:13.607Z,101900.66
2023-02-19T18:35:40.136Z,101910.16
2023-02-19T18:38:06.544Z,101914.53
2023-02-19T18:40:33.032Z,101910.59
2023-02-19T18:42:59.665Z,101910.41
2023-02-19T18:45:27.593Z,101912.44
2023-02-19T18:47:54.144Z,101924.91
2023-02-19T18:50:20.589Z,101922.63
2023-02-19T18:52:47.667Z,101928.41
2023-02-19T18:55:14.262Z,101923.41
2023-02-19T18:57:40.778Z,101922.59
2023-02-19T19:00:08.326Z,101925.31
2023-02-19T19:02:48.246Z,101917.22
2023-02-19T19:05:18.574Z,101918.06
2023-02-19T19:07:45.018Z,101923.63
2023-02-19T19:10:11.540Z,101919.50
2023-02-19T19:12:37.945Z,101918.69
2023-02-19T19:15:04.965Z,101917.81
2023-02-19T19:17:31.385Z,101917.00
2023-02-19T19:19:57.844Z,101914.31
2023-02-19T19:22:25.094Z,101907.06
2023-02-19T19:24:51.489Z,101911.00
2023-02-19T19:27:20.248Z,101892.16
2023-02-19T19:29:47.876Z,101898.78
2023-02-19T19:32:14.558Z,101897.75
2023-02-19T19:34:42.680Z,101905.41
2023-02-19T19:37:09.854Z,101904.34
2023-02-19T19:39:36.925Z,101903.13
2023-02-19T19:42:03.927Z,101915.53
2023-02-19T19:44:30.350Z,101902.06
2023-02-19T19:46:56.859Z,101900.63
2023-02-19T19:49:24.082Z,101891.09
2023-02-19T19:51:50.624Z,101894.63
2023-02-19T19:54:17.071Z,101894.22
2023-02-19T19:56:45.866Z,101891.53
2023-02-19T19:59:14.979Z,101887.78
2023-02-19T20:01:52.883Z,101894.66
2023-02-19T20:04:21.556Z,101886.38
2023-02-19T20:06:48.555Z,101889.47
2023-02-19T20:09:16.096Z,101887.19
2023-02-19T20:11:52.903Z,101896.09
2023-02-19T20:14:21.348Z,101902.09
2023-02-19T20:16:48.248Z,101900.25
2023-02-19T20:19:15.539Z,101896.97
2023-02-19T20:21:50.440Z,101896.09
2023-02-19T20:24:19.209Z,101898.41
2023-02-19T20:26:45.733Z,101900.47
2023-02-19T20:29:12.691Z,101899.41
2023-02-19T20:31:39.913Z,101901.28
2023-02-19T20:34:06.433Z,101896.97
2023-02-19T20:36:32.935Z,101883.91
2023-02-19T20:38:59.393Z,101888.66
2023-02-19T20:41:26.347Z,101882.22
2023-02-19T20:43:52.924Z,101886.59
2023-02-19T20:46:19.443Z,101882.03
2023-02-19T20:48:46.145Z,101890.53
2023-02-19T20:51:12.644Z,101886.81
2023-02-19T20:53:40.637Z,101879.75
2023-02-19T20:56:07.184Z,101882.03
2023-02-19T20:58:33.667Z,101882.84
2023-02-19T21:01:00.980Z,101877.66
2023-02-19T21:03:27.585Z,101883.28
2023-02-19T21:05:54.142Z,101877.47
2023-02-19T21:08:20.603Z,101876.84
2023-02-19T21:10:47.064Z,101871.06
2023-02-19T21:13:13.896Z,101873.13
2023-02-19T21:15:40.658Z,101867.34
2023-02-19T21:18:07.178Z,101867.53
2023-02-19T21:20:34.753Z,101874.38
2023-02-19T21:23:04.431Z,101873.56
2023-02-19T21:25:33.020Z,101865.47
2023-02-19T21:27:59.478Z,101867.97
2023-02-19T21:30:26.135Z,101871.88
2023-02-19T21:32:52.890Z,101870.44
2023-02-19T21:35:19.356Z,101879.34
2023-02-19T21:37:45.757Z,101890.94
2023-02-19T21:40:12.876Z,101886.81
2023-02-19T21:42:39.370Z,101886.41
2023-02-19T21:45:06.290Z,101884.31
2023-02-19T21:47:32.729Z,101893.81
2023-02-19T21:49:59.399Z,101898.19
2023-02-19T21:52:26.908Z,101884.31
2023-02-19T21:54:53.949Z,101883.25
2023-02-19T21:57:20.411Z,101893.59
2023-02-19T21:59:46.823Z,101896.72
2023-02-19T22:02:13.449Z,101884.09
2023-02-19T22:04:39.893Z,101893.00
2023-02-19T22:07:06.342Z,101894.47
2023-02-19T22:09:32.751Z,101881.81
2023-02-19T22:11:59.279Z,101868.75
2023-02-19T22:14:25.943Z,101883.47
2023-02-19T22:16:52.887Z,101871.88
2023-02-19T22:19:19.341Z,101873.53
2023-02-19T22:21:45.813Z,101862.97
2023-02-19T22:24:21.345Z,101854.69
2023-02-19T22:26:50.553Z,101863.38
2023-02-19T22:29:17.641Z,101850.13
2023-02-19T22:31:44.486Z,101842.25
2023-02-19T22:34:11.910Z,101835.81
2023-02-19T22:36:38.920Z,101835.00
2023-02-19T22:39:07.662Z,101827.09
2023-02-19T22:41:34.759Z,101827.94
2023-02-19T22:44:01.619Z,101849.50
2023-02-19T22:46:30.409Z,101863.13
2023-02-19T22:48:57.774Z,101862.53
2023-02-19T22:51:25.280Z,101850.50
2023-02-19T22:53:57.339Z,101853.84
2023-02-19T22:56:26.248Z,101856.94
2023-02-19T22:58:54.017Z,101851.75
2023-02-19T23:01:21.171Z,101848.00
2023-02-19T23:03:48.839Z,101828.31
2023-02-19T23:06:17.151Z,101838.88
2023-02-19T23:08:44.114Z,101830.16
2023-02-19T23:11:11.960Z,101833.88
2023-02-19T23:13:42.533Z,101837.38
2023-02-19T23:16:09.170Z,101839.66
2023-02-19T23:18:35.825Z,101838.41
2023-02-19T23:21:03.675Z,101839.19
2023-02-19T23:23:30.217Z,101834.41
2023-02-19T23:25:56.686Z,101841.88
2023-02-19T23:28:23.363Z,101836.06
2023-02-19T23:30:50.576Z,101834.41
2023-02-19T23:33:17.336Z,101822.59
2023-02-19T23:35:43.821Z,101825.06
2023-02-19T23:38:10.971Z,101825.72
2023-02-19T23:40:37.469Z,101822.16
2023-02-19T23:43:04.141Z,101821.53
2023-02-19T23:45:31.160Z,101831.88
2023-02-19T23:47:57.969Z,101833.81
2023-02-19T23:50:24.423Z,101832.75
2023-02-19T23:52:50.876Z,101831.28
2023-02-19T23:55:17.498Z,101830.06
2023-02-19T23:57:43.918Z,101833.97
